Time;durP1;ratioP1;P1;durP2;ratioP2;P2;SDS_P1;SDS_P2;PMS_P1;PMS_P2;Temp;Humidity;BMP_temperature;BMP_pressure;BME280_temperature;BME280_humidity;BME280_pressure;Samples;Min_cycle;Max_cycle;Signal;HPM_P1;HPM_P2
2023/01/31 00:01:41;;;;;;;6.68;4.43;;;4.30;71.70;;;;;;5071631;28;20193;-74
2023/01/31 00:04:13;;;;;;;6.63;4.22;;;4.30;71.70;;;;;;5072582;28;20197;-75
2023/01/31 00:06:42;;;;;;;8.90;4.53;;;4.30;71.80;;;;;;5072522;28;20611;-74
2023/01/31 00:09:12;;;;;;;6.07;4.05;;;4.30;71.70;;;;;;5072305;28;20201;-75
2023/01/31 00:11:41;;;;;;;7.72;4.75;;;4.40;71.90;;;;;;5072019;28;20269;-74
2023/01/31 00:14:10;;;;;;;12.48;4.85;;;4.40;71.80;;;;;;5072162;28;20703;-74
2023/01/31 00:16:40;;;;;;;7.43;4.25;;;4.40;71.60;;;;;;5071825;28;20560;-74
2023/01/31 00:19:09;;;;;;;8.07;4.18;;;4.40;71.70;;;;;;5072391;28;20250;-74
2023/01/31 00:21:42;;;;;;;10.00;5.43;;;4.40;71.80;;;;;;5071763;28;20189;-74
2023/01/31 00:24:12;;;;;;;6.80;4.85;;;4.30;72.00;;;;;;5072163;28;20271;-74
2023/01/31 00:26:42;;;;;;;5.65;4.15;;;4.40;71.80;;;;;;5071952;28;20191;-75
2023/01/31 00:29:09;;;;;;;8.27;4.75;;;4.40;71.60;;;;;;5072319;28;20196;-75
2023/01/31 00:31:41;;;;;;;7.90;5.13;;;4.50;71.50;;;;;;5071167;28;20670;-74
2023/01/31 00:34:09;;;;;;;7.85;4.45;;;4.50;71.20;;;;;;5072326;28;20665;-74
2023/01/31 00:36:36;;;;;;;6.38;4.30;;;4.50;71.00;;;;;;5075297;28;20235;-74
2023/01/31 00:39:06;;;;;;;7.40;5.03;;;4.50;71.40;;;;;;5076332;28;20196;-75
2023/01/31 00:41:38;;;;;;;7.63;4.30;;;4.50;71.10;;;;;;5075540;28;20203;-74
2023/01/31 00:44:08;;;;;;;7.85;4.78;;;4.50;71.40;;;;;;5076195;28;20232;-74
2023/01/31 00:46:35;;;;;;;7.40;5.05;;;4.40;71.50;;;;;;5075676;28;20200;-75
2023/01/31 00:49:04;;;;;;;6.82;4.72;;;4.40;71.60;;;;;;5076211;28;20278;-74
2023/01/31 00:51:32;;;;;;;5.90;4.60;;;4.40;72.00;;;;;;5075736;28;20552;-75
2023/01/31 00:54:01;;;;;;;8.80;5.68;;;4.50;71.90;;;;;;5075772;28;20666;-75
2023/01/31 00:56:33;;;;;;;7.85;5.00;;;4.50;71.70;;;;;;5075293;28;20212;-74
2023/01/31 00:59:07;;;;;;;6.10;4.38;;;4.50;71.50;;;;;;5075796;28;20262;-75
2023/01/31 01:01:36;;;;;;;7.85;4.57;;;4.60;71.40;;;;;;5074863;28;20195;-75
2023/01/31 01:04:05;;;;;;;5.93;4.45;;;4.50;71.50;;;;;;5075303;28;20194;-75
2023/01/31 01:06:33;;;;;;;9.13;5.60;;;4.50;71.60;;;;;;5075042;28;20220;-74
2023/01/31 01:09:05;;;;;;;12.93;5.13;;;4.50;71.80;;;;;;5075406;28;20201;-74
2023/01/31 01:11:34;;;;;;;8.23;4.60;;;4.50;71.70;;;;;;5075175;28;20189;-75
2023/01/31 01:14:01;;;;;;;8.43;5.88;;;4.50;71.90;;;;;;5075329;28;20221;-75
2023/01/31 01:16:32;;;;;;;11.02;5.03;;;4.40;71.90;;;;;;5074876;28;20317;-74
2023/01/31 01:19:01;;;;;;;10.10;5.07;;;4.40;72.20;;;;;;5075085;28;20196;-75
2023/01/31 01:21:30;;;;;;;5.72;4.43;;;4.40;72.30;;;;;;5072577;28;20607;-75
2023/01/31 01:24:02;;;;;;;7.32;4.47;;;4.40;72.50;;;;;;5074876;28;20196;-75
2023/01/31 01:26:31;;;;;;;5.65;3.97;;;4.30;72.50;;;;;;5075210;28;20211;-75
2023/01/31 01:29:00;;;;;;;6.90;4.75;;;4.40;72.40;;;;;;5074712;28;20658;-75
2023/01/31 01:31:29;;;;;;;6.28;4.05;;;4.30;72.60;;;;;;5074842;28;20235;-75
2023/01/31 01:34:05;;;;;;;9.27;4.57;;;4.30;72.50;;;;;;5074654;28;20671;-74
2023/01/31 01:36:36;;;;;;;7.10;4.10;;;4.30;72.50;;;;;;5075172;28;20247;-75
2023/01/31 01:39:08;;;;;;;5.00;3.83;;;4.20;72.40;;;;;;5074605;28;20195;-74
2023/01/31 01:41:39;;;;;;;7.20;4.45;;;4.20;72.40;;;;;;5075130;28;20189;-74
2023/01/31 01:44:44;;;;;;;8.10;4.88;;;4.20;72.10;;;;;;5074591;28;20310;-74
2023/01/31 01:47:18;;;;;;;7.03;3.85;;;4.20;71.70;;;;;;5074659;28;20654;-75
2023/01/31 01:49:51;;;;;;;6.72;4.07;;;4.10;71.40;;;;;;5073880;28;20246;-75
2023/01/31 01:52:19;;;;;;;8.52;4.60;;;4.10;71.40;;;;;;5074914;28;20602;-75
2023/01/31 01:54:56;;;;;;;7.65;5.00;;;4.10;71.70;;;;;;5074417;28;20661;-75
2023/01/31 01:57:30;;;;;;;5.50;3.67;;;4.10;71.70;;;;;;5074480;28;20231;-75
2023/01/31 02:00:07;;;;;;;7.30;3.72;;;4.00;71.90;;;;;;5074175;28;20235;-74
2023/01/31 02:02:35;;;;;;;7.75;4.35;;;4.10;72.00;;;;;;5074953;28;20200;-74
2023/01/31 02:05:05;;;;;;;7.03;4.18;;;4.10;71.90;;;;;;5074171;28;20218;-74
2023/01/31 02:07:33;;;;;;;8.00;4.07;;;4.10;71.90;;;;;;5074349;28;20199;-74
2023/01/31 02:10:05;;;;;;;5.40;4.32;;;4.10;71.70;;;;;;5074109;28;20630;-74
2023/01/31 02:12:35;;;;;;;6.20;3.80;;;4.20;71.30;;;;;;5074418;28;20709;-74
2023/01/31 02:15:03;;;;;;;9.27;3.72;;;4.10;71.20;;;;;;5074126;28;20551;-74
2023/01/31 02:17:30;;;;;;;8.45;3.50;;;4.10;71.30;;;;;;5073790;28;20219;-75
2023/01/31 02:20:28;;;;;;;8.18;3.60;;;4.20;71.20;;;;;;5074310;28;20648;-74
2023/01/31 02:23:15;;;;;;;8.95;3.70;;;4.20;70.90;;;;;;5073752;28;20208;-74
2023/01/31 02:26:05;;;;;;;6.85;3.30;;;4.20;70.70;;;;;;5074535;28;20217;-74
2023/01/31 02:29:04;;;;;;;5.97;3.65;;;4.20;70.40;;;;;;5054009;28;20229;-75
2023/01/31 02:32:28;;;;;;;4.80;2.95;;;4.10;70.50;;;;;;5065070;28;20192;-74
2023/01/31 02:35:06;;;;;;;7.28;3.63;;;4.10;70.70;;;;;;5073546;28;20275;-74
2023/01/31 02:37:44;;;;;;;8.23;3.63;;;4.00;70.80;;;;;;5073923;28;20227;-75
2023/01/31 02:40:17;;;;;;;5.43;3.47;;;4.00;70.60;;;;;;5073809;28;20188;-74
2023/01/31 02:42:54;;;;;;;6.65;3.60;;;4.00;70.60;;;;;;5053851;28;20248;-75
2023/01/31 02:45:29;;;;;;;6.45;3.97;;;4.00;70.40;;;;;;5065120;28;20185;-74
2023/01/31 02:48:13;;;;;;;8.70;3.70;;;4.00;70.40;;;;;;5073774;28;20561;-74
2023/01/31 02:50:48;;;;;;;5.35;3.58;;;3.90;70.50;;;;;;5073195;28;20571;-75
2023/01/31 02:53:19;;;;;;;12.02;4.13;;;4.00;70.70;;;;;;5073428;28;20203;-76
2023/01/31 02:58:45;;;;;;;8.05;3.65;;;4.00;70.10;;;;;;5072811;28;20215;-74
2023/01/31 03:01:21;;;;;;;6.35;3.25;;;4.00;69.50;;;;;;5072729;28;20188;-74
2023/01/31 03:03:51;;;;;;;4.45;3.35;;;4.00;69.40;;;;;;5073243;28;20196;-74
2023/01/31 03:06:53;;;;;;;7.72;3.35;;;4.00;69.60;;;;;;5072851;28;20204;-74
2023/01/31 03:09:30;;;;;;;6.45;3.10;;;4.00;69.60;;;;;;5072861;28;20193;-75
2023/01/31 03:12:17;;;;;;;6.72;3.97;;;4.10;69.80;;;;;;5056864;28;20196;-75
2023/01/31 03:14:58;;;;;;;11.38;4.20;;;4.00;69.50;;;;;;5072719;28;20271;-75
2023/01/31 03:17:46;;;;;;;4.95;3.53;;;4.10;69.20;;;;;;5073185;28;20220;-74
2023/01/31 03:20:24;;;;;;;5.75;3.60;;;4.00;68.90;;;;;;5072111;28;20216;-75
2023/01/31 03:22:57;;;;;;;5.07;3.67;;;4.00;68.90;;;;;;5072673;28;20196;-74
2023/01/31 03:25:28;;;;;;;7.97;3.83;;;3.90;69.10;;;;;;5072286;28;20674;-74
2023/01/31 03:27:58;;;;;;;5.57;4.10;;;3.90;69.10;;;;;;5072578;28;20188;-75
2023/01/31 03:30:32;;;;;;;5.72;3.85;;;3.90;69.30;;;;;;5072556;28;20196;-74
2023/01/31 03:33:06;;;;;;;6.88;4.25;;;3.90;69.20;;;;;;5072952;28;20196;-75
2023/01/31 03:35:38;;;;;;;5.90;4.00;;;3.90;69.00;;;;;;5072283;28;20192;-74
2023/01/31 03:38:17;;;;;;;5.90;3.60;;;3.90;69.10;;;;;;5073029;28;20281;-74
2023/01/31 03:40:49;;;;;;;5.10;3.10;;;3.90;69.00;;;;;;5072311;28;20184;-74
2023/01/31 03:43:33;;;;;;;4.65;3.55;;;3.90;68.80;;;;;;5072486;28;20212;-75
2023/01/31 03:46:07;;;;;;;4.50;3.10;;;3.90;68.30;;;;;;5072492;28;20203;-74
2023/01/31 03:48:42;;;;;;;12.15;3.63;;;3.90;68.40;;;;;;5072797;28;20192;-75
2023/01/31 03:51:18;;;;;;;8.23;4.07;;;3.80;68.40;;;;;;5072331;28;20597;-74
2023/01/31 03:53:55;;;;;;;6.03;4.15;;;3.80;68.50;;;;;;5072581;28;20197;-74
2023/01/31 03:56:27;;;;;;;6.15;3.42;;;3.70;68.70;;;;;;5072230;28;20190;-75
2023/01/31 03:59:00;;;;;;;9.85;4.22;;;3.60;68.80;;;;;;5072275;28;20191;-75
2023/01/31 04:01:31;;;;;;;6.22;3.83;;;3.60;68.90;;;;;;5072124;28;20199;-75
2023/01/31 04:04:05;;;;;;;6.50;4.03;;;3.50;69.10;;;;;;5072419;28;20200;-75
2023/01/31 04:06:34;;;;;;;4.68;3.58;;;3.50;69.20;;;;;;5072187;28;20198;-74
2023/01/31 04:09:02;;;;;;;6.70;4.45;;;3.50;69.50;;;;;;5071794;28;20226;-74
2023/01/31 04:11:29;;;;;;;5.90;4.80;;;3.50;69.50;;;;;;5071998;28;20646;-74
2023/01/31 04:13:58;;;;;;;7.50;4.40;;;3.50;69.50;;;;;;5071850;28;20229;-74
2023/01/31 04:16:25;;;;;;;8.55;5.38;;;3.40;69.60;;;;;;5069449;28;20190;-75
2023/01/31 04:18:59;;;;;;;6.55;3.85;;;3.50;70.00;;;;;;5072209;28;20201;-75
2023/01/31 04:21:26;;;;;;;9.15;4.60;;;3.50;69.80;;;;;;5071815;28;20191;-75
2023/01/31 04:23:55;;;;;;;6.70;4.22;;;3.50;69.80;;;;;;5072286;28;20233;-74
2023/01/31 04:26:22;;;;;;;11.98;4.53;;;3.50;70.00;;;;;;5071953;28;20215;-75
2023/01/31 04:28:49;;;;;;;11.90;4.80;;;3.50;69.90;;;;;;5072328;28;20200;-75
2023/01/31 04:31:17;;;;;;;9.30;4.00;;;3.60;69.90;;;;;;5071781;28;20187;-75
2023/01/31 04:33:44;;;;;;;7.32;4.28;;;3.60;69.70;;;;;;5072231;28;20231;-74
2023/01/31 04:36:11;;;;;;;7.53;4.60;;;3.60;69.80;;;;;;5071400;28;20715;-74
2023/01/31 04:38:44;;;;;;;10.27;4.43;;;3.60;69.70;;;;;;5071944;28;20267;-74
2023/01/31 04:41:16;;;;;;;4.95;3.90;;;3.60;69.60;;;;;;5072076;28;20595;-75
2023/01/31 04:43:43;;;;;;;6.20;3.83;;;3.60;69.70;;;;;;5071250;28;20193;-75
2023/01/31 04:46:12;;;;;;;6.88;4.28;;;3.70;69.50;;;;;;5072288;28;20257;-74
2023/01/31 04:48:40;;;;;;;12.77;4.25;;;3.70;69.30;;;;;;5071710;28;20196;-74
2023/01/31 04:51:07;;;;;;;5.93;3.88;;;3.80;69.30;;;;;;5071702;28;20639;-74
2023/01/31 04:53:36;;;;;;;7.88;5.00;;;3.80;68.60;;;;;;5071775;28;20192;-74
2023/01/31 04:56:05;;;;;;;5.22;4.40;;;3.80;68.40;;;;;;5072265;28;20224;-74
2023/01/31 04:58:37;;;;;;;8.27;3.47;;;3.80;68.40;;;;;;5071403;28;20228;-75
2023/01/31 05:01:04;;;;;;;6.35;3.25;;;3.80;68.60;;;;;;5071348;28;20548;-74
2023/01/31 05:03:36;;;;;;;5.63;4.20;;;3.80;68.10;;;;;;5067899;28;20190;-74
2023/01/31 05:06:03;;;;;;;7.25;4.30;;;3.80;68.10;;;;;;5070782;28;20199;-74
2023/01/31 05:08:31;;;;;;;6.28;3.40;;;3.80;67.80;;;;;;5070722;28;20659;-74
2023/01/31 05:11:01;;;;;;;7.03;3.50;;;3.80;67.50;;;;;;5071673;28;20229;-74
2023/01/31 05:13:36;;;;;;;6.57;4.13;;;3.80;67.20;;;;;;5070044;28;20352;-74
2023/01/31 05:16:07;;;;;;;7.95;3.50;;;3.80;67.30;;;;;;5071638;28;20188;-74
2023/01/31 05:18:36;;;;;;;4.95;3.30;;;3.80;67.50;;;;;;5071398;28;20313;-74
2023/01/31 05:21:05;;;;;;;7.85;3.53;;;3.90;67.10;;;;;;5072447;28;20241;-75
2023/01/31 05:23:40;;;;;;;10.15;4.07;;;3.90;66.40;;;;;;5075166;28;20183;-74
2023/01/31 05:26:13;;;;;;;4.80;3.08;;;3.90;66.60;;;;;;5075516;28;20200;-74
2023/01/31 05:28:42;;;;;;;6.93;2.90;;;3.90;66.80;;;;;;5075311;28;20182;-75
2023/01/31 05:31:12;;;;;;;7.82;3.20;;;3.90;67.10;;;;;;5075271;28;20278;-75
2023/01/31 05:33:46;;;;;;;7.60;3.60;;;3.90;66.50;;;;;;5074730;28;20192;-75
2023/01/31 05:36:13;;;;;;;5.45;3.50;;;4.00;66.10;;;;;;5075383;28;20192;-74
2023/01/31 05:38:40;;;;;;;7.88;3.40;;;4.00;66.00;;;;;;5074584;28;20220;-74
2023/01/31 05:41:08;;;;;;;8.88;4.18;;;4.00;66.20;;;;;;5075309;28;20465;-74
2023/01/31 05:43:40;;;;;;;11.00;4.65;;;4.00;65.90;;;;;;5074169;28;20187;-74
2023/01/31 05:46:09;;;;;;;7.50;4.28;;;4.00;65.80;;;;;;5075033;28;20193;-74
2023/01/31 05:48:38;;;;;;;7.88;3.33;;;4.00;65.80;;;;;;5074545;28;20227;-74
2023/01/31 05:51:06;;;;;;;6.70;3.25;;;4.00;65.60;;;;;;5075169;28;20250;-74
2023/01/31 05:53:33;;;;;;;6.88;3.50;;;4.00;65.20;;;;;;5074652;28;20184;-73
2023/01/31 05:56:06;;;;;;;5.38;3.28;;;4.00;64.90;;;;;;5074889;28;20653;-74
2023/01/31 05:58:39;;;;;;;6.05;3.30;;;4.00;65.00;;;;;;5074677;28;20638;-74
2023/01/31 06:01:11;;;;;;;6.85;2.75;;;4.00;64.70;;;;;;5075303;28;20193;-75
2023/01/31 06:03:44;;;;;;;10.60;3.58;;;4.00;64.80;;;;;;5074534;28;20189;-74
2023/01/31 06:06:11;;;;;;;11.88;3.38;;;4.00;65.20;;;;;;5074825;28;20197;-75
2023/01/31 06:08:40;;;;;;;7.80;3.65;;;4.00;64.90;;;;;;5073948;28;20196;-75
2023/01/31 06:11:11;;;;;;;8.85;5.72;;;4.00;64.90;;;;;;5074577;28;20687;-75
2023/01/31 06:13:42;;;;;;;8.63;4.53;;;4.00;65.00;;;;;;5073472;28;20215;-74
2023/01/31 06:16:11;;;;;;;11.38;5.28;;;4.00;64.90;;;;;;5074175;28;20278;-77
2023/01/31 06:18:39;;;;;;;16.88;7.20;;;4.10;65.30;;;;;;5073915;28;20270;-74
2023/01/31 06:21:08;;;;;;;19.27;8.85;;;4.10;64.80;;;;;;5074963;28;20189;-74
2023/01/31 06:23:35;;;;;;;8.13;4.65;;;4.10;64.70;;;;;;5073529;28;20188;-74
2023/01/31 06:26:07;;;;;;;8.40;4.00;;;4.10;64.80;;;;;;5074350;28;20651;-74
2023/01/31 06:28:34;;;;;;;14.18;7.10;;;4.10;64.80;;;;;;5073827;28;20262;-75
2023/01/31 06:31:07;;;;;;;11.88;5.13;;;4.10;64.90;;;;;;5073932;28;20197;-74
2023/01/31 06:33:34;;;;;;;11.68;4.75;;;4.00;65.10;;;;;;5073462;28;20188;-74
2023/01/31 06:36:01;;;;;;;14.48;4.05;;;4.10;65.20;;;;;;5074268;28;20346;-74
2023/01/31 06:38:31;;;;;;;6.10;3.97;;;4.00;65.00;;;;;;5073398;28;20242;-75
2023/01/31 06:41:03;;;;;;;6.80;3.40;;;4.00;65.20;;;;;;5071269;28;20224;-74
2023/01/31 06:43:33;;;;;;;6.97;3.63;;;3.90;65.00;;;;;;5070146;28;20281;-74
2023/01/31 06:46:04;;;;;;;8.20;3.72;;;3.90;65.80;;;;;;5068548;28;20275;-74
2023/01/31 06:48:36;;;;;;;5.90;3.67;;;3.90;66.40;;;;;;5071943;28;20197;-74
2023/01/31 06:51:07;;;;;;;8.57;4.07;;;3.90;66.40;;;;;;5068088;28;20286;-74
2023/01/31 06:53:36;;;;;;;7.28;4.85;;;3.90;66.40;;;;;;5071411;28;20203;-75
2023/01/31 06:56:03;;;;;;;16.77;8.65;;;3.90;66.40;;;;;;5072040;28;20265;-75
2023/01/31 06:58:33;;;;;;;10.98;5.15;;;3.90;66.40;;;;;;5071362;28;20218;-74
2023/01/31 07:01:06;;;;;;;15.15;8.98;;;4.00;66.50;;;;;;5071305;28;20287;-74
2023/01/31 07:03:33;;;;;;;7.88;5.20;;;4.10;66.30;;;;;;5071454;28;20196;-74
2023/01/31 07:06:00;;;;;;;6.00;3.85;;;4.10;66.40;;;;;;5069960;28;20184;-74
2023/01/31 07:08:27;;;;;;;4.22;2.60;;;4.10;66.40;;;;;;5070798;28;20234;-74
2023/01/31 07:10:55;;;;;;;12.10;4.38;;;4.10;66.10;;;;;;5071489;28;20673;-74
2023/01/31 07:13:22;;;;;;;4.60;3.03;;;4.20;66.10;;;;;;5069027;28;20308;-74
2023/01/31 07:15:50;;;;;;;4.60;2.92;;;4.20;66.10;;;;;;5070474;28;20287;-74
2023/01/31 07:18:19;;;;;;;7.05;3.70;;;4.30;66.40;;;;;;5070422;28;20215;-76
2023/01/31 07:20:47;;;;;;;8.05;3.40;;;4.30;65.90;;;;;;5071544;28;20564;-74
2023/01/31 07:23:14;;;;;;;8.20;3.55;;;4.30;65.90;;;;;;5070265;28;20363;-75
2023/01/31 07:25:41;;;;;;;5.50;3.47;;;4.40;65.90;;;;;;5070955;28;20219;-76
2023/01/31 07:28:11;;;;;;;6.55;2.72;;;4.50;65.80;;;;;;5072337;28;20242;-75
2023/01/31 07:30:38;;;;;;;6.82;3.33;;;4.50;66.20;;;;;;5073596;28;20192;-75
2023/01/31 07:33:05;;;;;;;13.00;8.25;;;4.60;65.50;;;;;;5073251;28;20193;-74
2023/01/31 07:35:32;;;;;;;20.60;13.48;;;4.70;65.30;;;;;;5072789;28;20606;-75
2023/01/31 07:37:59;;;;;;;7.07;4.55;;;4.80;65.20;;;;;;5072759;28;20302;-74
2023/01/31 07:40:26;;;;;;;8.90;4.20;;;4.90;64.50;;;;;;5072998;28;20287;-76
2023/01/31 07:43:02;;;;;;;8.88;5.15;;;5.00;64.10;;;;;;5072258;28;20225;-76
2023/01/31 07:45:30;;;;;;;12.13;8.75;;;5.20;63.40;;;;;;5070204;28;20199;-75
2023/01/31 07:47:58;;;;;;;10.65;6.72;;;5.30;63.30;;;;;;5071956;28;20832;-75
2023/01/31 07:50:31;;;;;;;9.57;5.32;;;5.40;62.80;;;;;;5071934;28;20203;-74
2023/01/31 07:52:58;;;;;;;6.07;3.70;;;5.50;62.30;;;;;;5071769;28;20201;-76
2023/01/31 07:55:25;;;;;;;8.35;3.67;;;5.70;61.50;;;;;;5071223;28;20229;-75
2023/01/31 07:57:52;;;;;;;7.57;4.28;;;5.80;60.70;;;;;;5069828;28;20213;-74
2023/01/31 08:03:32;;;;;;;10.68;3.97;;;6.00;60.00;;;;;;5073328;28;20193;-74
2023/01/31 08:06:00;;;;;;;7.80;3.78;;;6.20;60.20;;;;;;5072753;28;20280;-74
2023/01/31 08:08:27;;;;;;;8.75;3.72;;;6.40;60.30;;;;;;5073124;28;20240;-75
2023/01/31 08:10:54;;;;;;;9.10;3.83;;;6.50;58.90;;;;;;5072912;28;20225;-74
2023/01/31 08:13:21;;;;;;;7.18;3.67;;;6.60;58.00;;;;;;5072452;28;20260;-74
2023/01/31 08:15:51;;;;;;;5.93;3.20;;;6.50;58.10;;;;;;5072771;28;20201;-74
2023/01/31 08:18:19;;;;;;;6.10;3.35;;;6.60;57.70;;;;;;5072351;28;20213;-75
2023/01/31 08:20:46;;;;;;;6.68;3.83;;;6.50;57.70;;;;;;5072419;28;20288;-74
2023/01/31 08:23:18;;;;;;;7.53;3.33;;;6.60;58.50;;;;;;5072654;28;20194;-74
2023/01/31 08:25:47;;;;;;;6.35;3.83;;;6.80;57.50;;;;;;5072653;28;20273;-74
2023/01/31 08:28:15;;;;;;;10.93;3.95;;;7.10;57.40;;;;;;5072884;28;20297;-75
2023/01/31 08:30:43;;;;;;;8.98;3.13;;;7.30;57.40;;;;;;5070233;28;20292;-75
2023/01/31 08:33:11;;;;;;;6.95;3.92;;;7.70;57.70;;;;;;5072902;28;20190;-75
2023/01/31 08:35:40;;;;;;;7.00;4.40;;;8.40;56.30;;;;;;5072877;28;20273;-74
2023/01/31 08:38:07;;;;;;;6.40;4.43;;;9.20;56.10;;;;;;5072751;28;20419;-75
2023/01/31 08:40:34;;;;;;;4.63;3.25;;;10.00;53.30;;;;;;5073077;28;20667;-74
2023/01/31 08:43:01;;;;;;;7.07;3.92;;;10.80;51.30;;;;;;5072446;28;20194;-75
2023/01/31 08:45:28;;;;;;;6.28;3.40;;;11.20;48.40;;;;;;5072694;28;20618;-75
2023/01/31 08:47:56;;;;;;;8.55;3.00;;;11.30;47.00;;;;;;5072810;28;20591;-76
2023/01/31 08:50:24;;;;;;;9.52;3.83;;;11.40;46.30;;;;;;5072341;28;20190;-75
2023/01/31 08:52:56;;;;;;;6.65;3.58;;;11.40;46.70;;;;;;5072454;28;20225;-75
2023/01/31 08:55:24;;;;;;;6.65;3.55;;;11.70;46.20;;;;;;5072365;28;20285;-74
2023/01/31 08:57:52;;;;;;;7.28;3.30;;;11.60;46.00;;;;;;5076366;28;20712;-74
2023/01/31 09:00:20;;;;;;;7.35;3.55;;;11.80;44.20;;;;;;5076206;28;20225;-74
2023/01/31 09:02:51;;;;;;;8.27;4.50;;;11.70;44.00;;;;;;5075770;28;20284;-75
2023/01/31 09:05:19;;;;;;;11.00;6.28;;;11.80;43.70;;;;;;5076262;28;20190;-74
2023/01/31 09:07:45;;;;;;;9.45;4.55;;;11.60;42.80;;;;;;5075718;28;20205;-74
2023/01/31 09:10:14;;;;;;;7.97;3.53;;;11.70;43.80;;;;;;5076100;28;20700;-74
2023/01/31 09:12:41;;;;;;;7.50;4.00;;;11.70;42.90;;;;;;5075743;28;20240;-75
2023/01/31 09:15:09;;;;;;;8.90;4.10;;;11.50;43.20;;;;;;5075851;28;20280;-75
2023/01/31 09:17:36;;;;;;;11.10;4.32;;;11.30;42.60;;;;;;5076247;28;20704;-75
2023/01/31 09:20:05;;;;;;;5.40;4.00;;;11.20;43.10;;;;;;5075959;28;20722;-74
2023/01/31 09:22:33;;;;;;;10.73;5.18;;;11.30;43.30;;;;;;5075961;28;20230;-75
2023/01/31 09:25:00;;;;;;;10.95;6.75;;;11.30;42.80;;;;;;5075745;28;20192;-75
2023/01/31 09:27:35;;;;;;;5.70;3.78;;;11.50;42.70;;;;;;5059672;28;20660;-75
2023/01/31 09:30:02;;;;;;;8.50;6.20;;;11.50;42.20;;;;;;5055613;28;20263;-74
2023/01/31 09:32:30;;;;;;;9.98;5.60;;;11.90;42.70;;;;;;5072590;28;20190;-75
2023/01/31 09:34:57;;;;;;;8.48;6.85;;;12.30;41.50;;;;;;5075786;28;20281;-75
2023/01/31 09:37:24;;;;;;;11.10;8.85;;;12.80;41.10;;;;;;5075616;28;20194;-75
2023/01/31 09:39:51;;;;;;;8.45;5.35;;;12.90;40.30;;;;;;5075281;28;20308;-75
2023/01/31 09:42:23;;;;;;;14.70;8.73;;;12.70;40.10;;;;;;5075594;28;20200;-74
2023/01/31 09:45:02;;;;;;;10.18;4.65;;;12.40;39.60;;;;;;5075729;28;20277;-74
2023/01/31 09:47:33;;;;;;;12.25;8.95;;;12.10;39.30;;;;;;5075105;28;20232;-74
2023/01/31 09:50:06;;;;;;;5.57;3.97;;;11.80;40.60;;;;;;5075284;28;20273;-77
2023/01/31 09:52:38;;;;;;;7.05;5.07;;;11.70;40.10;;;;;;5075464;28;20615;-74
2023/01/31 09:55:16;;;;;;;9.77;7.07;;;11.50;41.00;;;;;;5075505;28;20700;-74
2023/01/31 09:57:50;;;;;;;9.32;7.22;;;11.50;41.30;;;;;;5074873;28;20229;-75
2023/01/31 10:00:25;;;;;;;6.40;5.07;;;11.60;41.30;;;;;;5075018;28;20303;-75
2023/01/31 10:03:25;;;;;;;9.02;4.78;;;11.90;41.60;;;;;;5075364;28;20193;-74
2023/01/31 10:05:57;;;;;;;7.18;4.68;;;12.50;40.80;;;;;;5075115;28;20277;-75
2023/01/31 10:08:39;;;;;;;7.30;4.50;;;12.90;40.20;;;;;;5074858;28;20735;-74
2023/01/31 10:11:12;;;;;;;5.45;4.35;;;13.60;40.30;;;;;;5075137;28;20440;-75
2023/01/31 10:13:45;;;;;;;5.43;4.33;;;14.60;39.80;;;;;;5074787;28;20267;-74
2023/01/31 10:16:21;;;;;;;5.33;4.37;;;15.70;37.80;;;;;;5075089;28;20446;-75
2023/01/31 10:18:52;;;;;;;7.50;4.70;;;16.20;35.10;;;;;;5074602;28;20570;-75
2023/01/31 10:21:25;;;;;;;11.60;8.10;;;16.10;33.80;;;;;;5074831;28;20464;-75
2023/01/31 10:23:58;;;;;;;13.90;8.67;;;15.80;33.00;;;;;;5074504;28;20539;-74
2023/01/31 10:26:30;;;;;;;5.73;4.40;;;15.70;33.10;;;;;;5074714;28;20472;-74
2023/01/31 10:29:00;;;;;;;14.17;10.30;;;15.70;33.90;;;;;;5074544;28;20436;-74
2023/01/31 10:31:34;;;;;;;8.50;6.00;;;15.80;33.10;;;;;;5074885;28;20446;-74
2023/01/31 10:34:05;;;;;;;7.17;5.17;;;15.80;34.00;;;;;;5074876;28;20451;-74
2023/01/31 10:36:38;;;;;;;5.20;3.83;;;16.10;33.10;;;;;;5074409;28;20515;-74
2023/01/31 10:39:08;;;;;;;5.57;4.00;;;16.20;32.40;;;;;;5074532;28;20567;-74
2023/01/31 10:41:45;;;;;;;7.20;4.03;;;16.40;32.60;;;;;;5074632;28;20547;-75
2023/01/31 10:44:22;;;;;;;5.10;3.90;;;16.40;31.90;;;;;;5074393;28;20450;-75
2023/01/31 10:46:52;;;;;;;5.43;3.63;;;16.30;32.10;;;;;;5074066;28;20534;-74
2023/01/31 10:49:23;;;;;;;5.70;4.27;;;16.40;31.90;;;;;;5074511;28;20825;-75
2023/01/31 10:52:03;;;;;;;4.83;4.30;;;16.40;31.60;;;;;;5073939;28;20849;-75
2023/01/31 10:54:42;;;;;;;4.73;4.20;;;16.30;30.90;;;;;;5074280;28;20527;-75
2023/01/31 10:57:09;;;;;;;5.80;4.90;;;16.30;30.60;;;;;;5074275;28;20522;-74
2023/01/31 10:59:38;;;;;;;5.70;3.53;;;16.10;30.50;;;;;;5074224;28;20540;-74
2023/01/31 11:02:24;;;;;;;5.73;3.80;;;15.90;30.20;;;;;;5073844;28;20468;-75
2023/01/31 11:04:53;;;;;;;5.80;4.00;;;15.50;30.60;;;;;;5073740;28;20482;-74
2023/01/31 11:07:21;;;;;;;6.17;3.83;;;15.30;31.20;;;;;;5074025;28;20540;-76
2023/01/31 11:09:52;;;;;;;8.27;6.27;;;15.40;31.20;;;;;;5073478;28;20532;-76
2023/01/31 11:12:20;;;;;;;8.73;4.30;;;15.60;31.30;;;;;;5074003;28;20858;-76
2023/01/31 11:15:05;;;;;;;11.37;6.87;;;15.80;31.70;;;;;;5073558;28;20566;-75
2023/01/31 11:17:36;;;;;;;7.57;4.00;;;16.20;30.60;;;;;;5073903;28;20906;-75
2023/01/31 11:20:06;;;;;;;7.20;4.00;;;16.50;31.20;;;;;;5070951;28;20537;-75
2023/01/31 11:22:37;;;;;;;6.17;4.20;;;17.60;30.20;;;;;;5073573;28;20467;-74
2023/01/31 11:25:06;;;;;;;5.97;4.13;;;17.90;29.20;;;;;;5073469;28;20974;-74
2023/01/31 11:27:38;;;;;;;5.70;3.90;;;17.80;28.70;;;;;;5073771;28;20977;-75
2023/01/31 11:30:07;;;;;;;7.93;3.60;;;18.30;29.60;;;;;;5073333;28;20842;-75
2023/01/31 11:32:37;;;;;;;9.40;3.97;;;19.40;28.70;;;;;;5073807;28;20435;-74
2023/01/31 11:35:06;;;;;;;5.87;3.97;;;19.70;27.90;;;;;;5073348;28;20829;-75
2023/01/31 11:37:34;;;;;;;7.43;3.33;;;19.30;26.90;;;;;;5073629;28;20480;-74
2023/01/31 11:40:03;;;;;;;4.67;3.13;;;18.60;26.90;;;;;;5073325;28;20829;-74
2023/01/31 11:42:30;;;;;;;5.07;3.40;;;17.80;27.40;;;;;;5073140;28;20432;-74
2023/01/31 11:45:00;;;;;;;5.90;3.67;;;17.20;27.80;;;;;;5072901;28;20530;-75
2023/01/31 11:47:49;;;;;;;4.17;3.33;;;16.50;28.40;;;;;;5073430;28;20480;-74
2023/01/31 11:50:21;;;;;;;5.60;3.87;;;15.80;28.90;;;;;;5073238;28;20476;-78
2023/01/31 11:52:55;;;;;;;7.77;3.90;;;15.20;29.60;;;;;;5073068;28;20476;-74
2023/01/31 11:55:24;;;;;;;5.90;3.80;;;14.70;29.70;;;;;;5073154;28;20475;-74
2023/01/31 11:57:58;;;;;;;5.70;4.50;;;14.20;30.70;;;;;;5073054;28;20440;-74
2023/01/31 12:00:27;;;;;;;4.47;3.47;;;13.70;31.50;;;;;;5072751;28;20566;-75
2023/01/31 12:03:02;;;;;;;4.83;4.13;;;13.10;31.90;;;;;;5072784;28;21019;-75
2023/01/31 12:05:37;;;;;;;5.43;3.70;;;12.70;32.80;;;;;;5072964;28;20439;-74
2023/01/31 12:08:05;;;;;;;6.10;3.93;;;12.30;33.70;;;;;;5073171;28;20475;-74
2023/01/31 12:10:41;;;;;;;5.23;3.43;;;12.00;34.50;;;;;;5072966;28;20532;-74
2023/01/31 12:13:16;;;;;;;7.38;3.75;;;11.70;34.70;;;;;;5072860;28;20502;-75
2023/01/31 12:15:54;;;;;;;5.15;3.97;;;11.40;36.10;;;;;;5070485;28;20185;-73
2023/01/31 12:18:37;;;;;;;6.72;3.63;;;11.30;36.20;;;;;;5073177;28;20189;-74
2023/01/31 12:21:11;;;;;;;5.53;3.20;;;11.20;36.60;;;;;;5072994;28;20308;-74
2023/01/31 12:23:54;;;;;;;7.50;4.20;;;11.10;37.00;;;;;;5073089;28;20277;-76
2023/01/31 12:26:33;;;;;;;5.00;3.47;;;11.00;37.20;;;;;;5072967;28;20200;-74
2023/01/31 12:29:24;;;;;;;5.72;3.80;;;10.90;37.00;;;;;;5073117;28;20229;-74
2023/01/31 12:32:17;;;;;;;6.32;3.95;;;10.70;37.40;;;;;;5077112;28;20198;-75
2023/01/31 12:35:21;;;;;;;6.65;4.22;;;10.50;38.50;;;;;;5075219;28;20350;-74
2023/01/31 12:38:00;;;;;;;4.90;3.20;;;10.40;38.80;;;;;;5076668;28;20197;-74
2023/01/31 12:40:38;;;;;;;5.80;3.95;;;10.20;38.40;;;;;;5076520;28;20770;-74
2023/01/31 12:43:15;;;;;;;5.45;3.65;;;10.10;38.40;;;;;;5076555;28;20197;-74
2023/01/31 12:45:58;;;;;;;4.53;3.38;;;10.00;38.40;;;;;;5076271;28;20280;-74
2023/01/31 12:48:37;;;;;;;5.07;3.42;;;9.90;39.90;;;;;;5076720;28;20280;-74
2023/01/31 12:51:26;;;;;;;4.65;3.20;;;9.70;39.90;;;;;;5076153;28;20223;-74
2023/01/31 12:54:05;;;;;;;4.30;3.40;;;9.60;40.70;;;;;;5075000;28;20220;-74
2023/01/31 12:56:58;;;;;;;4.05;3.17;;;9.50;40.40;;;;;;5076219;28;20281;-73
2023/01/31 12:59:38;;;;;;;5.20;3.90;;;9.50;39.50;;;;;;5076476;28;20300;-74
2023/01/31 13:02:23;;;;;;;5.85;3.30;;;9.40;40.10;;;;;;5076666;28;20235;-74
2023/01/31 13:04:57;;;;;;;10.10;5.50;;;9.30;40.60;;;;;;5076279;28;20588;-74
2023/01/31 13:07:34;;;;;;;10.13;6.63;;;9.30;40.60;;;;;;5076346;28;20540;-74
2023/01/31 13:10:07;;;;;;;28.45;15.82;;;9.40;40.90;;;;;;5074158;28;20697;-74
2023/01/31 13:12:39;;;;;;;15.30;8.75;;;9.40;41.10;;;;;;5076041;28;20272;-74
2023/01/31 13:15:15;;;;;;;11.00;7.18;;;9.50;41.10;;;;;;5076142;28;20198;-74
2023/01/31 13:17:42;;;;;;;8.98;5.95;;;9.90;41.40;;;;;;5075963;28;20225;-74
2023/01/31 13:20:22;;;;;;;6.68;4.80;;;11.20;41.60;;;;;;5076029;28;20279;-74
2023/01/31 13:22:55;;;;;;;5.28;3.50;;;12.50;39.10;;;;;;5076141;28;20221;-75
2023/01/31 13:25:29;;;;;;;4.95;2.95;;;13.30;36.50;;;;;;5075937;28;20647;-75